Metar (rayon 200 km actualisée toutes les 30 minutes)






LFBU - Brie/Champniers, France
Distance de la station: SSE 07km
Mise à jour: 28/04/2015 07:00
partiellement nuageux
partiellement nuageux
 Wind from N
Vent: N 6 km/h
Température: 5°C
Point de Rosée: -1°C
Humidité: 66%
Baromètre: 1020 hPa
Nuages: partiellement nuageux
Visibilité: 10 km
2015/04/28 05:00 LFBU 280500Z AUTO 36003KT 9999 NSC 05/M01 Q1020
LFBG - Cognac/Chateaubernard, France
Distance de la station: OSO 35km
Mise à jour: 28/04/2015 07:00
partiellement nuageux
partiellement nuageux
 Wind from NO
Vent: NO 4 km/h
Température: 6°C
Point de Rosée: 1°C
Humidité: 71%
Baromètre: 1020 hPa
Nuages: partiellement nuageux
Visibilité: 10 km
2015/04/28 05:00 LFBG 280500Z AUTO 31002KT 9999 NSC 06/01 Q1020
 
LFBL - Limoges/Bellegarde, France
Distance de la station: E 82km
Mise à jour: 28/04/2015 07:00
partiellement nuageux
partiellement nuageux
 Wind from NNE
Vent: NNE 13 km/h
Température: 4°C
Wind Chill: 1°C
Point de Rosée: 1°C
Humidité: 81%
Baromètre: 1018 hPa
Nuages: partiellement nuageux
Visibilité: 10 km
2015/04/28 05:00 LFBL 280500Z AUTO 02007KT 9999 NSC 04/01 Q1018
LFBI - Poitiers/France
Distance de la station: N 93km
Mise à jour: 28/04/2015 07:00
partiellement nuageux
partiellement nuageux
 Wind from O
Vent: O 4 km/h
Température: 3°C
Point de Rosée: 0°C
Humidité: 81%
Baromètre: 1019 hPa
Nuages: partiellement nuageux
Visibilité: 10 km
2015/04/28 05:00 LFBI 280500Z AUTO 28002KT 9999 NSC 03/M00 Q1019
 
LFBH - La Rochelle/France
Distance de la station: ONO 106km
Mise à jour: 28/04/2015 07:00
partiellement nuageux
partiellement nuageux
 Wind from calm
Vent: Vent calme
Température: 8°C
Point de Rosée: 2°C
Humidité: 66%
Baromètre: 1020 hPa
Nuages: partiellement nuageux
Visibilité: 10 km
2015/04/28 05:00 LFBH 280500Z AUTO 00000KT 9999 NSC 08/02 Q1020
LFBE - Bergerac/France
Distance de la station: SSE 107km
Mise à jour: 28/04/2015 07:00
partiellement nuageux
partiellement nuageux
 Wind from O
Vent: O 9 km/h
Température: 7°C
Wind Chill: 6°C
Point de Rosée: 5°C
Humidité: 87%
Baromètre: 1019 hPa
Nuages: partiellement nuageux
Visibilité: 10 km
2015/04/28 05:00 LFBE 280500Z AUTO 27005KT 9999 NSC 07/05 Q1019
 
LFBD - Bordeaux/France
Distance de la station: SSO 121km
Mise à jour: 28/04/2015 07:00
Quelques Nuages
Quelques Nuages
 Wind from variable
Vent: variable 4 km/h
Température: 7°C
Point de Rosée: 5°C
Humidité: 87%
Baromètre: 1020 hPa
Nuages: Quelques Nuages
Visibilité: 10 km
Nuages details: Quelques Nuages 792 m
2015/04/28 05:00 LFBD 280500Z AUTO VRB02KT 9999 FEW026 07/05 Q1020
LFRI - La Roche-sur-Yon/France
Distance de la station: NO 156km
Mise à jour: 28/04/2015 07:00
nuageux
nuageux
 Wind from calm
Vent: Vent calme
Température: 5°C
Point de Rosée: 3°C
Humidité: 87%
Baromètre: 1020 hPa
Nuages: nuageux
Visibilité: 10 km
Nuages details: Quelques Nuages 1158 m
nuageux 1951 m
2015/04/28 05:00 LFRI 280500Z AUTO 00000KT 9999 FEW038 BKN064 05/03 Q1020
 
LFBC - Cazaux/France
Distance de la station: SO 167km
Mise à jour: 28/04/2015 07:00
partiellement nuageux
partiellement nuageux
 Wind from ONO
Vent: ONO 7 km/h
Température: 9°C
Wind Chill: 8°C
Point de Rosée: 4°C
Humidité: 71%
Baromètre: 1020 hPa
Nuages: partiellement nuageux
Visibilité: 10 km
2015/04/28 05:00 LFBC 280500Z AUTO 29004KT 9999 NSC 09/04 Q1020
LFLX - Chateauroux/France
Distance de la station: NE 174km
Mise à jour: 28/04/2015 07:00
clair
clair
 Wind from ONO
Vent: ONO 7 km/h
Température: 2°C
Wind Chill: 0°C
Point de Rosée: 1°C
Humidité: 93%
Baromètre: 1019 hPa
Récapitulatifs: clair
Visibilité: supérieure à 10 km
2015/04/28 05:00 LFLX 280500Z 29004KT 250V340 CAVOK 02/01 Q1019 NOSIG
 
LFBA - Agen/France
Distance de la station: SSE 179km
Mise à jour: 28/04/2015 07:00
partiellement nuageux
partiellement nuageux
 Wind from O
Vent: O 7 km/h
Température: 9°C
Wind Chill: 8°C
Point de Rosée: 7°C
Humidité: 87%
Baromètre: 1020 hPa
Nuages: partiellement nuageux
Visibilité: 10 km
2015/04/28 05:00 LFBA 280500Z AUTO 26004KT 9999 NSC 09/07 Q1020